Oxford, Ohio
Current Conditions -  °F | °C
As of 11:35 PM on Sunday 25 Jan 2015 (Local Time) from KI67 Reporting Station
Overcast Overcast  
Wind Chill: 19°   Ceiling: 1100
Heat Index: 28°   Visibility: 3mi
Dew Point: 27°   Wind: 10mph
Humidity: 93%   Direction: 10°N
Pressure: 29.74"   Gusts: 16mph
Location:  39.51°N, 84.74°W
Report Text: KI67 260435Z AUTO 01009G14KT 3SM OVC011 M02/M03 A2974 RMK AO1
Loading
Personal Weather Stations






























Interactive Weather Map New forecast layout! Learn more

10-Day Weather Forecast

Advertisements
Track Severe Weather on mobile